Terminal Aerodrome Forecast
Issued by NWS Mobile, AL

Home | Current Version | Previous Version | Text Only | Print | Product List | Glossary On
Versions: 1 2 3 4 5 6 7 8 9 10 11 12 13 14 15 16 17 18 19 20 21 22 23 24 25 26 27 28 29 30
000
FTUS44 KMOB 302324
TAFPNS
TAF
KPNS 302324Z 0100/0124 14015G21KT P6SM VCSH OVC009
      TEMPO 0102/0106 3SM TSRA BKN015CB OVC050
     FM010600 17017KT P6SM -TSRA SCT010CB BKN025 OVC080
      TEMPO 0106/0110 VRB15G30KT 1SM +TSRA BKN015CB
     FM011200 31012KT P6SM -RA SCT015 BKN050
     FM011500 33010KT P6SM SCT250=

USA.gov is the U.S. government's official web portal to all federal, state and local government web resources and services.